Time;durP1;ratioP1;P1;durP2;ratioP2;P2;SDS_P1;SDS_P2;PMS_P1;PMS_P2;Temp;Humidity;BMP_temperature;BMP_pressure;BME280_temperature;BME280_humidity;BME280_pressure;Samples;Min_cycle;Max_cycle;Signal;HPM_P1;HPM_P2
2023/11/24 00:02:17;;;;;;;13.20;8.50;;;;;;;2.52;91.89;96975.19;106977;1264;67573;-40
2023/11/24 00:04:44;;;;;;;12.10;9.00;;;;;;;2.56;91.79;96972.41;106906;1261;72740;-40
2023/11/24 00:07:12;;;;;;;13.70;9.30;;;;;;;2.60;91.16;96974.38;106987;1262;60438;-40
2023/11/24 00:09:39;;;;;;;12.00;8.70;;;;;;;2.58;91.11;96966.63;107043;1264;60550;-40
2023/11/24 00:12:07;;;;;;;12.60;8.50;;;;;;;2.56;91.19;96966.75;107035;1260;73867;-40
2023/11/24 00:14:35;;;;;;;13.80;8.60;;;;;;;2.61;90.77;96974.38;107011;1261;66621;-40
2023/11/24 00:17:04;;;;;;;14.40;8.60;;;;;;;2.66;90.57;96959.46;107015;1262;71408;-40
2023/11/24 00:19:32;;;;;;;13.70;9.10;;;;;;;2.64;90.30;96953.33;107072;1260;60537;-40
2023/11/24 00:21:59;;;;;;;13.30;9.00;;;;;;;2.61;90.28;96946.88;107001;1260;60315;-40
2023/11/24 00:24:27;;;;;;;11.00;8.10;;;;;;;2.64;90.08;96941.55;106958;1262;73885;-40
2023/11/24 00:26:55;;;;;;;13.40;9.10;;;;;;;2.70;89.91;96946.35;106970;1262;66537;-40
2023/11/24 00:29:23;;;;;;;12.00;8.60;;;;;;;2.67;89.72;96937.83;107022;1260;71483;-40
2023/11/24 00:31:50;;;;;;;14.70;8.50;;;;;;;2.62;89.85;96934.17;107011;1262;60345;-40
2023/11/24 00:34:18;;;;;;;12.00;8.30;;;;;;;2.67;89.63;96937.30;107048;1262;60370;-40
2023/11/24 00:36:46;;;;;;;14.50;9.50;;;;;;;2.68;89.58;96933.88;107025;1262;73844;-40
2023/11/24 00:39:14;;;;;;;15.30;9.90;;;;;;;2.65;89.60;96930.63;107026;1262;68120;-39
2023/11/24 00:41:41;;;;;;;13.50;9.40;;;;;;;2.61;89.40;96931.98;107011;1262;72666;-40
2023/11/24 00:44:10;;;;;;;13.40;8.70;;;;;;;2.66;89.54;96933.63;107108;1260;60451;-40
2023/11/24 00:46:38;;;;;;;14.10;9.60;;;;;;;2.60;89.16;96922.25;107032;1263;60357;-40
2023/11/24 00:49:05;;;;;;;15.00;9.90;;;;;;;2.61;89.20;96920.05;107010;1260;73893;-40
2023/11/24 00:51:33;;;;;;;13.80;9.10;;;;;;;2.56;89.37;96921.37;107038;1262;66799;-40
2023/11/24 00:54:00;;;;;;;13.20;9.10;;;;;;;2.59;89.44;96924.23;107040;1260;72670;-40
2023/11/24 00:56:29;;;;;;;12.50;8.90;;;;;;;2.59;89.62;96903.15;107040;1263;60452;-40
2023/11/24 00:58:57;;;;;;;13.60;9.00;;;;;;;2.53;89.71;96907.66;107015;1261;59355;-40
2023/11/24 01:01:25;;;;;;;13.20;9.20;;;;;;;2.48;89.94;96894.45;107031;1263;72631;-40
2023/11/24 01:03:52;;;;;;;13.10;8.60;;;;;;;2.50;89.89;96879.73;107006;1260;66801;-40
2023/11/24 01:06:20;;;;;;;14.70;9.60;;;;;;;2.50;89.83;96890.44;106831;1261;72767;-40
2023/11/24 01:08:48;;;;;;;14.10;9.20;;;;;;;2.44;90.06;96877.77;106960;1261;60565;-40
2023/11/24 01:11:15;;;;;;;13.00;9.20;;;;;;;2.43;90.25;96882.87;106990;1262;59592;-40
2023/11/24 01:13:43;;;;;;;15.20;9.20;;;;;;;2.47;90.20;96872.07;107043;1261;72675;-40
2023/11/24 01:16:10;;;;;;;14.90;10.10;;;;;;;2.46;90.29;96876.65;107003;1265;66909;-40
2023/11/24 01:18:38;;;;;;;14.30;9.70;;;;;;;2.42;90.61;96867.89;106959;1257;72753;-40
2023/11/24 01:21:07;;;;;;;16.00;9.90;;;;;;;2.47;90.45;96867.77;106980;1261;61193;-40
2023/11/24 01:23:35;;;;;;;13.20;8.90;;;;;;;2.49;90.48;96860.30;107053;1260;60322;-39
2023/11/24 01:26:03;;;;;;;14.60;9.20;;;;;;;2.46;90.55;96854.17;107073;1258;74881;-40
2023/11/24 01:28:31;;;;;;;13.80;9.30;;;;;;;2.44;90.60;96846.60;106959;1257;65470;-40
2023/11/24 01:30:58;;;;;;;12.90;9.20;;;;;;;2.48;90.72;96842.13;106939;1260;72728;-39
2023/11/24 01:33:26;;;;;;;13.60;9.40;;;;;;;2.50;90.59;96832.14;106987;1260;60565;-40
2023/11/24 01:35:55;;;;;;;12.90;8.30;;;;;;;2.46;90.73;96821.17;107064;1264;59257;-40
2023/11/24 01:38:23;;;;;;;12.80;8.70;;;;;;;2.47;90.82;96814.16;107045;1259;72647;-39
2023/11/24 01:40:51;;;;;;;13.10;8.10;;;;;;;2.51;90.49;96812.52;107056;1260;67575;-39
2023/11/24 01:43:19;;;;;;;12.30;8.90;;;;;;;2.51;90.57;96807.55;107068;1263;71415;-40
2023/11/24 01:45:47;;;;;;;12.10;8.50;;;;;;;2.48;90.76;96800.02;107016;1257;60450;-39
2023/11/24 01:48:15;;;;;;;11.70;8.00;;;;;;;2.52;90.68;96807.40;107053;1257;60447;-40
2023/11/24 01:50:43;;;;;;;10.90;7.60;;;;;;;2.58;90.52;96792.55;107084;1265;72567;-39
2023/11/24 01:53:10;;;;;;;13.40;8.60;;;;;;;2.59;90.59;96788.52;107017;1263;67915;-41
2023/11/24 01:55:38;;;;;;;11.20;7.20;;;;;;;2.58;90.84;96795.45;106890;1260;71818;-41
2023/11/24 01:58:06;;;;;;;10.80;7.40;;;;;;;2.63;90.46;96789.16;106989;1263;60457;-40
2023/11/24 02:00:34;;;;;;;11.80;7.90;;;;;;;2.70;90.39;96787.30;107016;1263;60353;-40
2023/11/24 02:03:02;;;;;;;10.00;7.40;;;;;;;2.70;90.39;96782.95;107004;1258;73826;-40
2023/11/24 02:05:30;;;;;;;9.80;7.40;;;;;;;2.69;90.53;96782.40;107054;1262;67648;-40
2023/11/24 02:07:57;;;;;;;9.60;7.10;;;;;;;2.74;90.31;96773.11;107048;1263;72734;-40
2023/11/24 02:10:25;;;;;;;11.20;7.20;;;;;;;2.78;89.81;96769.70;107064;1263;60333;-40
2023/11/24 02:12:53;;;;;;;10.80;7.70;;;;;;;2.75;89.79;96763.42;106951;1258;60336;-40
2023/11/24 02:15:20;;;;;;;10.50;7.20;;;;;;;2.76;89.94;96757.01;107040;1258;71585;-40
2023/11/24 02:17:48;;;;;;;10.60;7.00;;;;;;;2.81;89.79;96750.92;107050;1263;67603;-40
2023/11/24 02:20:16;;;;;;;13.40;7.80;;;;;;;2.83;89.68;96752.01;106986;1260;72678;-40
2023/11/24 02:22:43;;;;;;;9.60;7.00;;;;;;;2.81;89.81;96746.42;107020;1258;60431;-40
2023/11/24 02:25:11;;;;;;;9.60;7.30;;;;;;;2.82;89.98;96734.88;107063;1257;61236;-40
2023/11/24 02:27:39;;;;;;;12.90;7.70;;;;;;;2.85;89.84;96724.73;107088;1263;73935;-40
2023/11/24 02:30:09;;;;;;;11.40;7.50;;;;;;;2.85;89.66;96720.61;107065;1258;67647;-40
2023/11/24 02:32:37;;;;;;;9.80;7.20;;;;;;;2.82;89.71;96714.23;107049;1261;72707;-40
2023/11/24 02:35:05;;;;;;;10.30;6.90;;;;;;;2.87;89.70;96720.55;107065;1258;60441;-40
2023/11/24 02:37:33;;;;;;;12.60;7.80;;;;;;;2.90;89.42;96713.84;107031;1258;60059;-40
2023/11/24 02:40:00;;;;;;;10.50;7.00;;;;;;;2.88;89.37;96715.81;107066;1262;72979;-40
2023/11/24 02:42:30;;;;;;;10.90;7.10;;;;;;;2.86;89.48;96714.65;107058;1263;67617;-40
2023/11/24 02:44:57;;;;;;;10.00;6.50;;;;;;;2.92;89.21;96715.84;107026;1264;72697;-40
2023/11/24 02:47:26;;;;;;;10.40;7.30;;;;;;;2.96;88.99;96710.11;107047;1260;60451;-40
2023/11/24 02:49:54;;;;;;;9.70;7.00;;;;;;;2.94;89.17;96704.46;107023;1257;60038;-40
2023/11/24 02:52:21;;;;;;;10.20;6.90;;;;;;;2.96;89.06;96700.11;107063;1258;73855;-40
2023/11/24 02:54:52;;;;;;;9.60;7.20;;;;;;;3.01;88.75;96690.27;107058;1257;65788;-40
2023/11/24 02:57:20;;;;;;;10.30;7.30;;;;;;;3.01;88.63;96693.94;106976;1260;72671;-40
2023/11/24 02:59:47;;;;;;;10.90;6.60;;;;;;;2.97;88.71;96687.73;106938;1258;60876;-40
2023/11/24 03:02:16;;;;;;;11.20;7.00;;;;;;;3.00;88.47;96686.52;106992;1257;60332;-40
2023/11/24 03:04:44;;;;;;;10.10;7.20;;;;;;;3.06;88.18;96685.70;106892;1258;73869;-40
2023/11/24 03:07:11;;;;;;;11.10;7.70;;;;;;;3.06;88.32;96677.36;106938;1263;67552;-40
2023/11/24 03:09:40;;;;;;;10.50;7.40;;;;;;;3.02;88.47;96676.29;106974;1263;71714;-40
2023/11/24 03:12:08;;;;;;;9.30;6.70;;;;;;;3.05;88.27;96669.57;106952;1259;61034;-40
2023/11/24 03:14:36;;;;;;;10.70;7.20;;;;;;;3.10;87.87;96667.60;107027;1257;60329;-40
2023/11/24 03:17:04;;;;;;;10.30;7.20;;;;;;;3.09;88.00;96662.17;107070;1258;72750;-40
2023/11/24 03:19:32;;;;;;;11.60;7.00;;;;;;;3.06;87.97;96657.11;106985;1257;67907;-40
2023/11/24 03:21:59;;;;;;;12.20;7.50;;;;;;;3.12;87.70;96640.46;107033;1263;72689;-40
2023/11/24 03:24:27;;;;;;;9.90;7.30;;;;;;;3.16;87.50;96628.77;107064;1258;60341;-40
2023/11/24 03:26:54;;;;;;;10.60;7.30;;;;;;;3.15;87.34;96623.35;107054;1263;60355;-40
2023/11/24 03:29:22;;;;;;;8.70;6.90;;;;;;;3.13;87.39;96617.83;107003;1258;73897;-40
2023/11/24 03:31:49;;;;;;;9.40;6.40;;;;;;;3.17;87.29;96602.55;106978;1258;67931;-40
2023/11/24 03:34:18;;;;;;;9.30;6.60;;;;;;;3.24;87.18;96596.52;107079;1258;71448;-40
2023/11/24 03:36:46;;;;;;;9.40;6.70;;;;;;;3.22;86.99;96574.11;106105;1257;1003644;-40
2023/11/24 03:41:30;;;;;;;9.40;6.60;;;;;;;3.24;87.17;96584.98;104277;1292;599651;-40
2023/11/24 03:43:59;;;;;;;8.90;6.20;;;;;;;3.23;86.88;96584.13;106665;1266;60878;-39
2023/11/24 03:46:27;;;;;;;10.10;6.10;;;;;;;3.27;86.78;96582.69;106657;1265;59276;-39
2023/11/24 03:48:54;;;;;;;8.30;6.10;;;;;;;3.31;86.40;96551.70;106660;1267;72246;-39
2023/11/24 03:51:22;;;;;;;8.00;6.30;;;;;;;3.30;86.39;96542.67;106621;1267;68007;-40
2023/11/24 03:53:50;;;;;;;8.80;6.20;;;;;;;3.27;86.49;96539.16;106710;1267;71203;-39
2023/11/24 03:56:18;;;;;;;7.50;5.70;;;;;;;3.28;86.52;96527.23;106594;1267;194895;-39
2023/11/24 03:58:47;;;;;;;7.80;6.20;;;;;;;3.32;86.27;96530.60;106746;1268;59155;-40
2023/11/24 04:01:15;;;;;;;9.00;6.10;;;;;;;3.29;86.35;96524.09;106735;1264;72234;-40
2023/11/24 04:03:45;;;;;;;7.40;5.20;;;;;;;3.30;86.30;96520.58;106744;1264;68071;-40
2023/11/24 04:06:14;;;;;;;6.90;5.50;;;;;;;3.35;86.16;96518.21;106756;1266;72711;-47
2023/11/24 04:08:42;;;;;;;6.90;5.30;;;;;;;3.38;85.97;96525.48;106787;1263;59456;-40
2023/11/24 04:11:10;;;;;;;8.20;5.40;;;;;;;3.36;86.06;96529.16;106718;1262;59673;-40
2023/11/24 04:13:38;;;;;;;6.70;5.50;;;;;;;3.40;86.05;96526.56;106733;1266;72098;-40
2023/11/24 04:16:06;;;;;;;7.00;5.70;;;;;;;3.46;85.69;96531.48;106806;1263;66430;-40
2023/11/24 04:18:34;;;;;;;5.90;5.00;;;;;;;3.50;85.56;96550.29;106740;1263;72673;-39
2023/11/24 04:21:02;;;;;;;7.20;5.30;;;;;;;3.49;85.86;96568.12;106722;1264;60989;-40
2023/11/24 04:23:29;;;;;;;6.30;5.10;;;;;;;3.53;85.55;96573.17;106742;1263;59753;-40
2023/11/24 04:25:57;;;;;;;7.30;5.40;;;;;;;3.59;85.24;96592.16;106762;1263;73075;-39
2023/11/24 04:28:25;;;;;;;7.30;5.50;;;;;;;3.60;85.44;96586.88;106828;1263;65344;-40
2023/11/24 04:30:52;;;;;;;8.20;5.70;;;;;;;3.57;85.44;96578.23;106769;1263;71431;-40
2023/11/24 04:33:20;;;;;;;7.30;5.40;;;;;;;3.62;85.51;96579.15;106796;1264;59858;-40
2023/11/24 04:35:49;;;;;;;7.50;5.80;;;;;;;3.65;85.21;96587.27;106845;1263;59567;-40
2023/11/24 04:38:16;;;;;;;6.60;5.70;;;;;;;3.62;85.40;96586.81;106816;1263;71906;-40
2023/11/24 04:40:44;;;;;;;8.10;6.00;;;;;;;3.62;85.34;96591.02;106766;1263;67586;-39
2023/11/24 04:43:11;;;;;;;7.80;5.70;;;;;;;3.67;85.30;96587.66;106723;1263;71423;-39
2023/11/24 04:45:39;;;;;;;8.60;6.20;;;;;;;3.67;85.22;96576.17;106697;1262;59397;-39
2023/11/24 04:48:08;;;;;;;8.90;6.60;;;;;;;3.62;85.40;96562.94;106767;1267;60025;-39
2023/11/24 04:50:36;;;;;;;8.00;6.10;;;;;;;3.66;85.41;96570.06;106848;1263;73174;-39
2023/11/24 04:53:04;;;;;;;7.20;5.90;;;;;;;3.70;85.25;96566.15;106835;1262;67887;-39
2023/11/24 04:55:31;;;;;;;7.90;6.20;;;;;;;3.67;85.30;96560.64;106967;1264;71412;-39
2023/11/24 04:58:00;;;;;;;9.00;6.30;;;;;;;3.64;85.58;96578.16;107011;1260;60898;-39
2023/11/24 05:00:28;;;;;;;7.80;6.00;;;;;;;3.68;85.49;96576.02;107009;1260;59554;-39
2023/11/24 05:02:56;;;;;;;9.20;6.70;;;;;;;3.72;85.15;96575.88;106959;1259;73166;-39
2023/11/24 05:05:24;;;;;;;8.40;6.90;;;;;;;3.72;85.33;96580.48;107003;1260;67591;-39
2023/11/24 05:07:52;;;;;;;9.40;6.30;;;;;;;3.69;85.64;96578.77;106269;1260;1003015;-40
2023/11/24 05:10:19;;;;;;;10.90;6.20;;;;;;;3.72;85.21;96582.16;107093;1260;61064;-40
2023/11/24 05:12:47;;;;;;;8.30;6.50;;;;;;;3.77;85.22;96587.39;107034;1260;60013;-40
2023/11/24 05:15:14;;;;;;;11.20;6.80;;;;;;;3.76;85.10;96582.09;107008;1260;71811;-41
2023/11/24 05:17:42;;;;;;;8.00;6.20;;;;;;;3.74;85.22;96577.48;106995;1264;67557;-41
2023/11/24 05:20:14;;;;;;;8.20;6.40;;;;;;;3.77;85.30;96582.16;107026;1260;73192;-41
2023/11/24 05:22:42;;;;;;;8.70;6.70;;;;;;;3.82;85.07;96601.68;106952;1260;60132;-41
2023/11/24 05:25:09;;;;;;;6.90;6.20;;;;;;;3.81;84.84;96597.79;106960;1260;60076;-41
2023/11/24 05:27:37;;;;;;;8.60;6.60;;;;;;;3.80;85.04;96596.55;106928;1260;73036;-41
2023/11/24 05:30:07;;;;;;;7.50;5.30;;;;;;;3.85;84.93;96599.61;106970;1260;66429;-41
2023/11/24 05:32:37;;;;;;;8.00;6.30;;;;;;;3.92;84.87;96601.30;106979;1261;72786;-40
2023/11/24 05:35:05;;;;;;;8.80;6.60;;;;;;;3.91;84.61;96594.65;106965;1260;59525;-41
2023/11/24 05:37:35;;;;;;;8.40;6.00;;;;;;;3.89;84.76;96590.81;106937;1260;59625;-40
2023/11/24 05:40:06;;;;;;;7.60;5.70;;;;;;;3.95;84.63;96591.11;106868;1260;73135;-41
2023/11/24 05:42:34;;;;;;;8.00;6.10;;;;;;;4.02;84.04;96606.81;106829;1261;67693;-41
2023/11/24 05:45:02;;;;;;;7.60;6.00;;;;;;;4.03;84.02;96599.47;106029;1260;1002946;-41
2023/11/24 05:47:30;;;;;;;7.40;5.60;;;;;;;4.03;83.94;96601.85;106855;1262;60849;-41
2023/11/24 05:49:58;;;;;;;7.20;5.40;;;;;;;4.08;83.85;96599.16;106788;1263;59999;-41
2023/11/24 05:52:29;;;;;;;8.20;6.10;;;;;;;4.14;83.41;96603.23;106816;1260;71751;-41
2023/11/24 05:54:58;;;;;;;7.60;6.10;;;;;;;4.15;83.23;96600.86;106887;1261;67590;-41
2023/11/24 05:57:25;;;;;;;7.80;5.70;;;;;;;4.15;83.38;96603.08;106133;1261;1003054;-41
2023/11/24 05:59:54;;;;;;;6.50;5.00;;;;;;;4.21;83.10;96602.83;106859;1263;60970;-41
2023/11/24 06:02:22;;;;;;;6.30;5.20;;;;;;;4.26;82.68;96592.40;106938;1261;59654;-41
2023/11/24 06:04:49;;;;;;;7.40;5.70;;;;;;;4.26;82.58;96593.72;106846;1260;72750;-41
2023/11/24 06:07:17;;;;;;;7.20;5.20;;;;;;;4.26;82.58;96590.27;106811;1261;67881;-41
2023/11/24 06:09:45;;;;;;;7.00;5.20;;;;;;;4.31;82.23;96584.52;106849;1261;71437;-41
2023/11/24 06:12:12;;;;;;;6.90;5.20;;;;;;;4.37;82.11;96590.23;106884;1260;60098;-41
2023/11/24 06:14:40;;;;;;;7.60;5.30;;;;;;;4.37;82.02;96577.36;106856;1260;59557;-41
2023/11/24 06:17:08;;;;;;;6.70;5.00;;;;;;;4.34;81.95;96564.43;106853;1261;73075;-41
2023/11/24 06:19:36;;;;;;;7.70;4.40;;;;;;;4.39;81.56;96570.70;106879;1263;67888;-41
2023/11/24 06:22:04;;;;;;;8.30;5.00;;;;;;;4.44;81.59;96568.94;106854;1263;73455;-41
2023/11/24 06:24:31;;;;;;;5.90;4.60;;;;;;;4.44;81.53;96568.09;106961;1261;59253;-40
2023/11/24 06:26:59;;;;;;;7.10;4.70;;;;;;;4.43;81.53;96577.98;106862;1260;59637;-41
2023/11/24 06:29:26;;;;;;;7.20;4.90;;;;;;;4.48;81.62;96583.95;106879;1260;72112;-41
2023/11/24 06:31:54;;;;;;;7.60;5.30;;;;;;;4.52;81.20;96565.32;107235;1256;66597;-41
2023/11/24 06:34:22;;;;;;;6.20;4.60;;;;;;;4.54;81.10;96575.58;107294;1257;72730;-42
2023/11/24 06:36:50;;;;;;;5.80;4.50;;;;;;;4.53;81.37;96585.32;107188;1257;59717;-41
2023/11/24 06:39:19;;;;;;;5.00;4.20;;;;;;;4.57;80.97;96600.65;107203;1261;60332;-41
2023/11/24 06:41:47;;;;;;;6.40;4.60;;;;;;;4.63;80.61;96594.64;107205;1256;73058;-41
2023/11/24 06:44:16;;;;;;;5.50;4.20;;;;;;;4.63;80.40;96603.09;107200;1256;67909;-41
2023/11/24 06:46:43;;;;;;;6.50;4.50;;;;;;;4.62;80.43;96603.54;107210;1260;72672;-40
2023/11/24 06:49:11;;;;;;;5.10;3.90;;;;;;;4.67;80.24;96605.77;107196;1260;60968;-40
2023/11/24 06:51:40;;;;;;;6.20;4.40;;;;;;;4.72;80.21;96607.88;107202;1256;59573;-41
2023/11/24 06:54:08;;;;;;;7.00;4.30;;;;;;;4.71;80.20;96604.27;107222;1256;73094;-41
2023/11/24 06:56:36;;;;;;;5.40;4.10;;;;;;;4.69;80.88;96613.87;107226;1256;66820;-41
2023/11/24 06:59:03;;;;;;;5.80;4.10;;;;;;;4.71;81.24;96613.18;107485;1253;72799;-39
2023/11/24 07:01:31;;;;;;;5.00;4.10;;;;;;;4.75;81.17;96615.39;107492;1253;60200;-41
2023/11/24 07:04:04;;;;;;;5.70;4.00;;;;;;;4.74;81.23;96618.61;107483;1253;59244;-40
2023/11/24 07:06:31;;;;;;;5.00;3.90;;;;;;;4.71;81.28;96615.94;107418;1253;73088;-40
2023/11/24 07:08:59;;;;;;;5.20;3.70;;;;;;;4.73;80.73;96613.86;107399;1253;66438;-40
2023/11/24 07:11:27;;;;;;;4.90;3.60;;;;;;;4.77;80.68;96624.05;107434;1253;72716;-40
2023/11/24 07:13:54;;;;;;;7.40;3.60;;;;;;;4.74;80.63;96631.57;107477;1253;59848;-40
2023/11/24 07:16:22;;;;;;;4.50;3.60;;;;;;;4.70;81.24;96627.59;107473;1253;60066;-40
2023/11/24 07:18:50;;;;;;;5.80;3.90;;;;;;;4.70;82.42;96628.59;107500;1253;73124;-40
2023/11/24 07:21:18;;;;;;;5.00;3.90;;;;;;;4.71;83.04;96634.72;107466;1252;67551;-40
2023/11/24 07:23:45;;;;;;;5.20;3.80;;;;;;;4.65;83.58;96637.27;107452;1253;70436;-40
2023/11/24 07:26:16;;;;;;;5.90;4.50;;;;;;;4.61;83.81;96635.35;107496;1253;59656;-40
2023/11/24 07:28:44;;;;;;;5.10;3.60;;;;;;;4.63;83.60;96633.98;107520;1253;60135;-40
2023/11/24 07:31:15;;;;;;;4.90;3.90;;;;;;;4.68;83.50;96627.30;107533;1253;73246;-40
2023/11/24 07:33:48;;;;;;;6.50;3.90;;;;;;;4.65;83.11;96618.25;107641;1253;66623;-40
2023/11/24 07:36:20;;;;;;;5.90;4.20;;;;;;;4.64;83.08;96616.48;107457;1253;72761;-40
2023/11/24 07:38:48;;;;;;;4.90;3.60;;;;;;;4.69;83.13;96604.13;107451;1253;59679;-40
2023/11/24 07:41:16;;;;;;;5.50;3.40;;;;;;;4.73;83.13;96604.20;107506;1254;60041;-40
2023/11/24 07:43:43;;;;;;;4.60;3.80;;;;;;;4.71;83.49;96612.17;107506;1254;73080;-40
2023/11/24 07:46:11;;;;;;;5.40;3.50;;;;;;;4.64;84.30;96613.81;107492;1254;67921;-40
2023/11/24 07:48:40;;;;;;;4.90;3.70;;;;;;;4.65;84.88;96610.89;107506;1254;72671;-40
2023/11/24 07:51:08;;;;;;;6.50;3.90;;;;;;;4.65;84.91;96608.66;107475;1254;60412;-40
2023/11/24 07:53:36;;;;;;;5.00;3.70;;;;;;;4.60;85.09;96617.80;107477;1254;60398;-40
2023/11/24 07:56:05;;;;;;;4.50;3.60;;;;;;;4.55;84.95;96617.35;107473;1256;72989;-41
2023/11/24 07:58:32;;;;;;;5.90;3.30;;;;;;;4.58;84.48;96615.35;107519;1254;67005;-40
2023/11/24 08:01:00;;;;;;;4.80;3.50;;;;;;;4.66;84.25;96615.42;107508;1254;72747;-41
2023/11/24 08:03:29;;;;;;;5.80;3.80;;;;;;;4.69;83.78;96618.25;107500;1254;60424;-40
2023/11/24 08:05:58;;;;;;;4.20;3.10;;;;;;;4.73;83.37;96621.76;107525;1254;60405;-40
2023/11/24 08:08:25;;;;;;;4.50;3.20;;;;;;;4.90;83.03;96622.70;107489;1254;72586;-40
2023/11/24 08:10:53;;;;;;;4.30;3.20;;;;;;;5.08;82.20;96627.02;107513;1253;66315;-40
2023/11/24 08:13:20;;;;;;;4.90;3.20;;;;;;;5.16;81.82;96630.83;107526;1253;71335;-40
2023/11/24 08:15:48;;;;;;;5.50;3.50;;;;;;;5.18;81.45;96636.42;107517;1253;60346;-40
2023/11/24 08:18:15;;;;;;;4.50;3.40;;;;;;;5.20;81.25;96640.32;107506;1254;60457;-40
2023/11/24 08:20:43;;;;;;;4.10;3.10;;;;;;;5.26;80.16;96641.21;107502;1254;73931;-40
2023/11/24 08:23:15;;;;;;;3.90;2.90;;;;;;;5.26;80.11;96643.67;107520;1254;66733;-40
2023/11/24 08:25:43;;;;;;;3.90;3.00;;;;;;;5.20;79.09;96642.25;107401;1254;72661;-40
2023/11/24 08:28:13;;;;;;;4.60;2.90;;;;;;;5.15;79.24;96640.65;107401;1254;60411;-40
2023/11/24 08:30:41;;;;;;;4.30;3.60;;;;;;;5.19;79.55;96641.48;107393;1254;60578;-40
2023/11/24 08:33:09;;;;;;;4.90;3.10;;;;;;;5.24;79.48;96640.46;107385;1254;73875;-40
2023/11/24 08:35:38;;;;;;;4.90;3.30;;;;;;;5.24;79.07;96645.75;107434;1254;67846;-40
2023/11/24 08:38:06;;;;;;;5.90;3.90;;;;;;;5.19;78.42;96646.33;107517;1258;72835;-40
2023/11/24 08:40:34;;;;;;;5.50;3.50;;;;;;;5.16;78.65;96646.64;107469;1254;60859;-40
2023/11/24 08:43:01;;;;;;;5.20;3.40;;;;;;;5.18;78.24;96636.89;107503;1254;60383;-40
2023/11/24 08:45:29;;;;;;;5.90;3.70;;;;;;;5.20;77.98;96641.86;107478;1254;73985;-40
2023/11/24 08:47:56;;;;;;;4.30;3.30;;;;;;;5.16;77.91;96639.96;107489;1254;67293;-40
2023/11/24 08:50:28;;;;;;;5.10;3.60;;;;;;;5.10;77.92;96643.51;107494;1254;72720;-41
2023/11/24 08:52:55;;;;;;;6.50;3.50;;;;;;;5.06;77.96;96639.77;107478;1254;60312;-41
2023/11/24 08:55:23;;;;;;;6.80;3.60;;;;;;;5.12;77.90;96635.07;107514;1253;60341;-40
2023/11/24 08:57:51;;;;;;;5.70;3.30;;;;;;;5.10;77.26;96638.45;107497;1259;74222;-40
2023/11/24 09:00:23;;;;;;;5.00;3.40;;;;;;;5.06;77.32;96639.77;107414;1254;68002;-40
2023/11/24 09:02:51;;;;;;;5.10;2.90;;;;;;;5.04;77.43;96630.63;107351;1260;71493;-41
2023/11/24 09:05:19;;;;;;;4.50;3.00;;;;;;;5.09;77.31;96636.84;106762;1256;1003080;-41
2023/11/24 09:07:48;;;;;;;4.70;3.10;;;;;;;5.10;77.26;96635.14;106713;1254;1003591;-41
2023/11/24 09:10:16;;;;;;;5.20;3.30;;;;;;;5.08;77.67;96638.54;107439;1254;73977;-41
2023/11/24 09:12:45;;;;;;;5.70;3.10;;;;;;;5.05;77.78;96631.56;107497;1254;67921;-41
2023/11/24 09:15:13;;;;;;;4.80;3.60;;;;;;;5.05;77.15;96626.88;107455;1254;72709;-41
2023/11/24 09:17:41;;;;;;;5.40;2.80;;;;;;;5.08;76.68;96628.64;107473;1256;60553;-39
2023/11/24 09:20:11;;;;;;;4.50;2.60;;;;;;;5.04;76.44;96629.87;107428;1254;60631;-40
2023/11/24 09:22:38;;;;;;;;;;;;;;;5.02;76.28;96626.59;107337;1254;73738;-40
2023/11/24 09:25:08;;;;;;;3.80;2.30;;;;;;;5.06;75.38;96618.74;107365;1254;67885;-40
2023/11/24 09:27:36;;;;;;;4.60;2.10;;;;;;;5.11;74.95;96610.06;107370;1254;71439;-39
2023/11/24 09:30:08;;;;;;;4.70;2.20;;;;;;;5.11;74.28;96602.77;107466;1257;60367;-39
2023/11/24 09:32:37;;;;;;;2.70;1.70;;;;;;;5.12;73.17;96599.31;107493;1254;60306;-40
2023/11/24 09:35:07;;;;;;;4.10;1.90;;;;;;;5.14;72.48;96597.70;107449;1254;74284;-40
2023/11/24 09:37:35;;;;;;;4.30;2.30;;;;;;;5.24;71.92;96607.02;107401;1254;69138;-40
2023/11/24 09:40:04;;;;;;;3.60;2.00;;;;;;;5.29;71.55;96611.43;107466;1253;72721;-39
2023/11/24 09:42:36;;;;;;;3.20;1.70;;;;;;;5.29;71.58;96614.88;107530;1256;60528;-40
2023/11/24 09:45:08;;;;;;;4.10;1.90;;;;;;;5.31;71.45;96618.03;107420;1253;60536;-40
2023/11/24 09:47:36;;;;;;;2.60;1.50;;;;;;;5.35;71.07;96623.76;107493;1253;72774;-40
2023/11/24 09:50:09;;;;;;;2.80;1.70;;;;;;;5.41;70.58;96631.41;107481;1253;67699;-40
2023/11/24 09:52:37;;;;;;;2.70;1.40;;;;;;;5.43;70.16;96638.77;107465;1254;71382;-40
2023/11/24 09:55:05;;;;;;;3.20;1.70;;;;;;;5.42;70.32;96654.03;107427;1256;60441;-40
2023/11/24 09:57:33;;;;;;;2.30;1.40;;;;;;;5.41;69.74;96649.29;107482;1253;60554;-40
2023/11/24 10:00:04;;;;;;;1.80;1.20;;;;;;;5.43;69.28;96661.25;107441;1253;73944;-40
2023/11/24 10:02:31;;;;;;;2.40;1.60;;;;;;;5.48;68.77;96656.31;107515;1253;67593;-40
2023/11/24 10:04:59;;;;;;;4.30;1.90;;;;;;;5.45;68.66;96656.78;107331;1254;70547;-40
2023/11/24 10:07:27;;;;;;;4.00;1.90;;;;;;;5.41;67.99;96652.59;107414;1254;60467;-40
2023/11/24 10:09:54;;;;;;;3.00;1.50;;;;;;;5.39;67.87;96649.07;107332;1256;60799;-40
2023/11/24 10:12:22;;;;;;;2.30;1.20;;;;;;;5.39;67.55;96637.95;107360;1253;72330;-40
2023/11/24 10:14:49;;;;;;;3.30;1.20;;;;;;;5.45;67.35;96642.91;107374;1253;68086;-40
2023/11/24 10:17:17;;;;;;;3.20;1.60;;;;;;;5.53;67.03;96635.86;107450;1254;71485;-40
2023/11/24 10:19:45;;;;;;;2.60;1.40;;;;;;;5.57;67.04;96626.88;107398;1254;60326;-41
2023/11/24 10:22:12;;;;;;;4.80;1.60;;;;;;;5.65;66.24;96624.22;107366;1253;61016;-41
2023/11/24 10:24:40;;;;;;;2.30;1.20;;;;;;;5.82;66.00;96625.81;107567;1253;75652;-42
2023/11/24 10:27:21;;;;;;;1.90;1.10;;;;;;;5.96;64.94;96624.20;107601;1252;70211;-41
2023/11/24 10:29:50;;;;;;;3.80;1.80;;;;;;;6.05;64.56;96623.13;107530;1253;70890;-41
2023/11/24 10:32:18;;;;;;;2.40;1.40;;;;;;;6.10;63.85;96620.33;107493;1252;60831;-41
2023/11/24 10:34:49;;;;;;;2.10;1.10;;;;;;;6.25;63.60;96622.67;107489;1252;60495;-41
2023/11/24 10:37:21;;;;;;;1.80;1.10;;;;;;;6.47;62.89;96612.73;107500;1257;75766;-41
2023/11/24 10:39:48;;;;;;;1.70;1.10;;;;;;;6.72;62.21;96614.55;106838;1252;1003534;-41
2023/11/24 10:42:19;;;;;;;2.70;1.00;;;;;;;6.93;60.94;96620.79;107550;1253;72722;-41
2023/11/24 10:44:51;;;;;;;1.90;1.20;;;;;;;7.08;59.99;96609.98;107545;1253;60549;-41
2023/11/24 10:47:23;;;;;;;3.00;1.20;;;;;;;7.20;59.55;96612.77;107559;1253;60417;-41
2023/11/24 10:50:27;;;;;;;2.20;1.20;;;;;;;7.32;59.13;96621.33;107554;1253;73889;-41
2023/11/24 10:52:59;;;;;;;1.60;1.10;;;;;;;7.43;57.74;96620.50;106909;1259;66668;-41
2023/11/24 10:55:30;;;;;;;2.20;1.10;;;;;;;7.51;57.34;96624.63;107442;1254;71428;-41
2023/11/24 10:57:57;;;;;;;3.60;1.40;;;;;;;7.62;57.13;96617.23;107534;1253;60453;-41
2023/11/24 11:00:26;;;;;;;3.10;1.30;;;;;;;7.70;56.55;96622.06;107439;1254;60374;-41
2023/11/24 11:02:55;;;;;;;2.20;1.00;;;;;;;7.71;55.79;96625.98;106608;1253;1003023;-41
2023/11/24 11:05:36;;;;;;;3.50;1.10;;;;;;;7.61;55.54;96623.96;107579;1253;68398;-42
2023/11/24 11:08:20;;;;;;;3.40;1.10;;;;;;;7.52;55.97;96628.47;107559;1253;72654;-41
2023/11/24 11:11:11;;;;;;;5.00;1.40;;;;;;;7.42;56.23;96630.73;107531;1257;60505;-41
2023/11/24 11:13:40;;;;;;;3.30;1.60;;;;;;;7.25;56.87;96634.02;107545;1253;60349;-41
2023/11/24 11:16:08;;;;;;;3.10;1.50;;;;;;;7.21;58.01;96635.91;107630;1253;72601;-41
2023/11/24 11:18:36;;;;;;;3.20;1.40;;;;;;;7.23;57.79;96639.44;107573;1253;66759;-41
2023/11/24 11:21:11;;;;;;;3.20;1.30;;;;;;;7.30;58.24;96651.07;107577;1253;72829;-41
2023/11/24 11:23:38;;;;;;;2.60;1.30;;;;;;;7.42;57.64;96635.76;107533;1252;61682;-40
2023/11/24 11:26:07;;;;;;;3.70;1.10;;;;;;;7.44;56.96;96634.13;107590;1252;60351;-41
2023/11/24 11:28:39;;;;;;;5.80;1.60;;;;;;;7.29;57.05;96636.14;107568;1253;72275;-41
2023/11/24 11:31:32;;;;;;;3.30;1.40;;;;;;;7.06;57.98;96645.57;107583;1253;66610;-41
2023/11/24 11:34:14;;;;;;;3.80;1.50;;;;;;;6.82;58.54;96654.76;107501;1253;73256;-41
2023/11/24 11:36:51;;;;;;;5.20;1.30;;;;;;;6.57;57.09;96657.53;107499;1252;60409;-41
2023/11/24 11:39:20;;;;;;;3.30;1.30;;;;;;;6.34;56.70;96661.11;107567;1253;60454;-42
2023/11/24 11:41:51;;;;;;;4.30;1.30;;;;;;;6.26;56.34;96656.63;107407;1253;74815;-41